TimeEST,TemperatureF,Dew PointF,Humidity,Sea Level PressureIn,VisibilityMPH,Wind Direction,Wind SpeedMPH,Gust SpeedMPH,PrecipitationIn,Events,Conditions,WindDirDegrees,DateUTC
12:53 AM,46.9,43.0,86,29.79,6.0,SSE,5.8,-,N/A,,Partly Cloudy,150,2013-12-04 05:53:00
1:53 AM,46.0,43.0,89,29.78,6.0,SSE,6.9,-,N/A,,Clear,160,2013-12-04 06:53:00
2:53 AM,45.0,43.0,93,29.81,5.0,South,4.6,-,N/A,,Clear,180,2013-12-04 07:53:00
3:51 AM,44.6,42.8,93,29.82,4.0,SSE,3.5,-,N/A,,Mostly Cloudy,160,2013-12-04 08:51:00
3:53 AM,46.0,43.0,89,29.82,4.0,SSE,4.6,-,N/A,,Mostly Cloudy,160,2013-12-04 08:53:00
4:53 AM,46.9,44.1,90,29.82,4.0,SSE,5.8,-,N/A,,Overcast,160,2013-12-04 09:53:00
5:53 AM,48.0,46.0,93,29.82,3.0,SSE,5.8,-,N/A,,Overcast,160,2013-12-04 10:53:00
6:17 AM,46.9,46.0,97,29.81,2.5,SE,6.9,-,N/A,,Overcast,140,2013-12-04 11:17:00
6:34 AM,46.9,46.0,97,29.82,1.8,SSE,5.8,-,N/A,,Overcast,150,2013-12-04 11:34:00
6:53 AM,46.9,46.0,97,29.82,1.0,SSE,6.9,-,N/A,,Overcast,150,2013-12-04 11:53:00
7:00 AM,46.9,46.0,97,29.82,0.8,SE,5.8,-,N/A,,Overcast,140,2013-12-04 12:00:00
7:51 AM,46.4,46.4,100,29.83,1.5,SSE,5.8,-,N/A,,Overcast,150,2013-12-04 12:51:00
7:53 AM,46.9,46.0,97,29.83,1.5,SSE,5.8,-,N/A,,Overcast,150,2013-12-04 12:53:00
8:53 AM,48.0,46.9,96,29.84,0.8,SSE,5.8,-,N/A,,Overcast,160,2013-12-04 13:53:00
9:37 AM,48.9,48.0,97,29.83,1.0,SSE,8.1,-,N/A,,Overcast,150,2013-12-04 14:37:00
9:53 AM,48.9,48.0,97,29.82,1.8,SSE,8.1,-,N/A,,Overcast,150,2013-12-04 14:53:00
10:02 AM,50.0,48.0,93,29.82,2.0,SSE,6.9,-,N/A,,Overcast,150,2013-12-04 15:02:00
10:24 AM,50.0,48.0,93,29.82,3.0,SSE,8.1,-,N/A,,Overcast,150,2013-12-04 15:24:00
10:34 AM,50.0,48.0,93,29.82,3.0,SSE,8.1,-,N/A,,Overcast,150,2013-12-04 15:34:00
10:53 AM,51.1,48.9,92,29.81,4.0,SSE,10.4,-,N/A,,Overcast,150,2013-12-04 15:53:00
11:53 AM,53.1,50.0,89,29.77,4.0,SSE,10.4,-,N/A,,Overcast,160,2013-12-04 16:53:00
12:53 PM,55.0,52.0,89,29.72,5.0,South,10.4,-,N/A,,Overcast,170,2013-12-04 17:53:00
1:53 PM,55.0,52.0,89,29.69,5.0,SSE,13.8,-,N/A,,Overcast,160,2013-12-04 18:53:00
2:44 PM,55.9,53.1,90,29.69,2.5,South,12.7,19.6,N/A,,Overcast,170,2013-12-04 19:44:00
2:53 PM,55.9,53.1,90,29.68,2.5,South,11.5,19.6,N/A,,Overcast,170,2013-12-04 19:53:00
3:10 PM,55.9,54.0,93,29.68,4.0,SSE,10.4,-,N/A,,Overcast,160,2013-12-04 20:10:00
3:53 PM,57.0,54.0,89,29.67,4.0,South,8.1,-,N/A,,Overcast,170,2013-12-04 20:53:00
4:23 PM,57.0,54.0,89,29.67,4.0,SSE,9.2,-,N/A,,Overcast,160,2013-12-04 21:23:00
4:53 PM,57.9,55.0,90,29.67,5.0,South,8.1,-,N/A,,Overcast,180,2013-12-04 21:53:00
5:18 PM,57.9,55.0,90,29.67,5.0,South,8.1,-,N/A,,Overcast,170,2013-12-04 22:18:00
5:50 PM,57.2,53.6,88,29.67,7.0,South,9.2,-,N/A,,Overcast,170,2013-12-04 22:50:00
5:53 PM,57.9,54.0,87,29.66,7.0,South,8.1,-,N/A,,Overcast,170,2013-12-04 22:53:00
6:15 PM,57.9,54.0,87,29.67,7.0,South,11.5,-,N/A,,Mostly Cloudy,170,2013-12-04 23:15:00
6:53 PM,57.9,55.0,90,29.66,7.0,South,13.8,19.6,N/A,,Mostly Cloudy,170,2013-12-04 23:53:00
7:53 PM,57.9,54.0,87,29.66,8.0,South,11.5,-,N/A,,Mostly Cloudy,170,2013-12-05 00:53:00
8:53 PM,60.1,54.0,80,29.67,10.0,South,15.0,-,N/A,,Mostly Cloudy,190,2013-12-05 01:53:00
9:53 PM,59.0,54.0,83,29.67,9.0,SSW,10.4,18.4,N/A,,Mostly Cloudy,200,2013-12-05 02:53:00
10:53 PM,61.0,54.0,78,29.68,10.0,SSW,15.0,21.9,N/A,,Mostly Cloudy,200,2013-12-05 03:53:00
11:53 PM,61.0,54.0,78,29.70,10.0,SW,11.5,19.6,N/A,,Mostly Cloudy,220,2013-12-05 04:53:00